Welcome to Northern Hawkes Bay. New Zealand.
PWS Header
      nz Flag



Hit Counter


W3C Valid W3C Valid logo


    Wairoa

Select any of the Stations below to visit their websites.










Historic Data from Weather Underground
Select the location of interest below. Wairoa is the default. Please have patience, this Data is slow to load in.
Northern Hawkes Bay Historical Data
Daily Summary for November 29, 2017 Units:  Metric    English   Both
« Previous Day
Next Day »
Daily Weekly Monthly Yearly Custom
  High: Low: Average:
Temperature: 23.5 °C 12.6 °C 17.9 °C
Dew Point: 17.6 °C 12.2 °C 15.5 °C
Humidity: 99% 62% 87%
Wind Speed: 12.2km/h 0.0km/h 3.9km/h
Wind Gust: 17.2km/h - -
Wind- - WSW
Pressure: 1026.0 hPa 1020.5 hPa -
Precipitation: 0.0 mm    
Historical Graphs
 
 
Tabular Data for November 29, 2017
Time Temperature Dew Point Pressure Wind Wind Speed Wind Gust Humidity Rainfall Rate (Hourly) solar
00:00 15.4 °C 14.8 °C 1026.0 hPa Calm     96% 0.0 mm 0 W/m2
00:05 15.1 °C 14.5 °C 1026.0 hPa Calm     96% 0.0 mm 0 W/m2
00:10 15.4 °C 14.8 °C 1025.6 hPa NW 1.1 km/h 2.6 km/h 96% 0.0 mm 0 W/m2
00:15 15.4 °C 14.9 °C 1025.6 hPa NNW 2.6 km/h 3.5 km/h 97% 0.0 mm 0 W/m2
00:20 15.4 °C 14.9 °C 1026.0 hPa NNW 1.1 km/h 3.5 km/h 97% 0.0 mm 0 W/m2
00:25 15.4 °C 14.9 °C 1025.6 hPa Calm   3.5 km/h 97% 0.0 mm 0 W/m2
00:30 15.3 °C 14.8 °C 1025.6 hPa Calm   3.5 km/h 97% 0.0 mm 0 W/m2
00:35 15.3 °C 14.8 °C 1025.3 hPa Calm   3.5 km/h 97% 0.0 mm 0 W/m2
00:40 15.2 °C 14.7 °C 1025.3 hPa NNW 2.6 km/h 3.5 km/h 97% 0.0 mm 0 W/m2
00:45 15.3 °C 14.8 °C 1025.3 hPa NNW 2.6 km/h 3.5 km/h 97% 0.0 mm 0 W/m2
00:50 15.1 °C 14.8 °C 1025.3 hPa NNW 1.1 km/h 5.0 km/h 98% 0.0 mm 0 W/m2
00:55 15.1 °C 14.8 °C 1025.3 hPa NNW 2.6 km/h 5.0 km/h 98% 0.0 mm 0 W/m2
01:00 15.0 °C 14.7 °C 1024.9 hPa NNW 2.6 km/h 5.0 km/h 98% 0.0 mm 0 W/m2
01:05 15.0 °C 14.7 °C 1025.3 hPa Calm   5.0 km/h 98% 0.0 mm 0 W/m2
01:10 14.9 °C 14.8 °C 1024.9 hPa Calm   5.0 km/h 99% 0.0 mm 0 W/m2
01:20 14.8 °C 14.7 °C 1024.9 hPa Calm   3.5 km/h 99% 0.0 mm 0 W/m2
01:30 14.6 °C 14.4 °C 1024.9 hPa Calm     99% 0.0 mm 0 W/m2
01:35 14.5 °C 14.3 °C 1024.9 hPa Calm     99% 0.0 mm 0 W/m2
01:40 14.4 °C 14.3 °C 1024.9 hPa Calm     99% 0.0 mm 0 W/m2
01:45 14.4 °C 14.3 °C 1024.6 hPa NNW 1.1 km/h 3.5 km/h 99% 0.0 mm 0 W/m2
01:50 14.3 °C 14.2 °C 1024.6 hPa NW 3.5 km/h 6.1 km/h 99% 0.0 mm 0 W/m2
01:55 14.3 °C 14.2 °C 1024.6 hPa NW 3.5 km/h 6.1 km/h 99% 0.0 mm 0 W/m2
02:00 14.3 °C 14.2 °C 1024.6 hPa NW 2.6 km/h 6.1 km/h 99% 0.0 mm 0 W/m2
02:05 14.2 °C 14.1 °C 1024.6 hPa NW 1.1 km/h 5.0 km/h 99% 0.0 mm 0 W/m2
02:10 14.2 °C 14.1 °C 1024.6 hPa NW 2.6 km/h 6.1 km/h 99% 0.0 mm 0 W/m2
02:28 14.1 °C 13.9 °C 1024.3 hPa NW 3.5 km/h 7.2 km/h 99% 0.0 mm 0 W/m2
02:39 14.0 °C 13.8 °C 1024.3 hPa NW 3.5 km/h 7.2 km/h 99% 0.0 mm 0 W/m2
02:44 13.9 °C 13.8 °C 1024.3 hPa NW 5.0 km/h 7.2 km/h 99% 0.0 mm 0 W/m2
02:49 13.9 °C 13.8 °C 1024.3 hPa NW 6.1 km/h 9.7 km/h 99% 0.0 mm 0 W/m2
02:54 13.9 °C 13.8 °C 1024.3 hPa NW 6.1 km/h 9.7 km/h 99% 0.0 mm 0 W/m2
03:04 13.8 °C 13.7 °C 1024.3 hPa NNW 3.5 km/h 7.2 km/h 99% 0.0 mm 0 W/m2
03:09 13.8 °C 13.7 °C 1024.3 hPa NNW 5.0 km/h 8.7 km/h 99% 0.0 mm 0 W/m2
03:14 13.8 °C 13.7 °C 1024.3 hPa NNW 3.5 km/h 8.7 km/h 99% 0.0 mm 0 W/m2
03:19 13.8 °C 13.7 °C 1024.3 hPa NW 6.1 km/h 8.7 km/h 99% 0.0 mm 0 W/m2
03:29 13.6 °C 13.4 °C 1023.9 hPa NW 3.5 km/h 8.7 km/h 99% 0.0 mm 0 W/m2
03:34 13.6 °C 13.4 °C 1024.3 hPa NNW 1.1 km/h 7.2 km/h 99% 0.0 mm 0 W/m2
03:39 13.6 °C 13.4 °C 1024.3 hPa NW 2.6 km/h 7.2 km/h 99% 0.0 mm 0 W/m2
03:44 13.6 °C 13.4 °C 1024.3 hPa NW 5.0 km/h 7.2 km/h 99% 0.0 mm 0 W/m2
03:49 13.6 °C 13.4 °C 1024.3 hPa NW 5.0 km/h 8.7 km/h 99% 0.0 mm 0 W/m2
03:54 13.5 °C 13.3 °C 1024.3 hPa NW 5.0 km/h 8.7 km/h 99% 0.0 mm 0 W/m2
04:10 13.2 °C 13.1 °C 1024.3 hPa NW 2.6 km/h 8.7 km/h 99% 0.0 mm 0 W/m2
04:25 13.1 °C 12.9 °C 1024.3 hPa NW 3.5 km/h 7.2 km/h 99% 0.0 mm 0 W/m2
04:30 13.0 °C 12.8 °C 1024.3 hPa NW 3.5 km/h 8.7 km/h 99% 0.0 mm 0 W/m2
04:35 13.0 °C 12.8 °C 1024.3 hPa NW 3.5 km/h 8.7 km/h 99% 0.0 mm 0 W/m2
04:40 13.0 °C 12.8 °C 1024.3 hPa NW 3.5 km/h 8.7 km/h 99% 0.0 mm 0 W/m2
04:55 12.9 °C 12.4 °C 1024.3 hPa NW 8.7 km/h 11.1 km/h 97% 0.0 mm 0 W/m2
05:00 12.9 °C 12.4 °C 1023.9 hPa NW 7.2 km/h 9.7 km/h 97% 0.0 mm 0 W/m2
05:05 12.9 °C 12.4 °C 1024.3 hPa NW 6.1 km/h 11.1 km/h 97% 0.0 mm 0 W/m2
05:10 12.8 °C 12.3 °C 1023.9 hPa NW 6.1 km/h 11.1 km/h 97% 0.0 mm 0 W/m2
05:25 12.7 °C 12.2 °C 1024.3 hPa NW 6.1 km/h 9.7 km/h 97% 0.0 mm 0 W/m2
05:30 12.7 °C 12.2 °C 1024.3 hPa NW 5.0 km/h 9.7 km/h 97% 0.0 mm 0 W/m2
05:35 12.7 °C 12.2 °C 1024.3 hPa NNW 6.1 km/h 9.7 km/h 97% 0.0 mm 0 W/m2
05:40 12.6 °C 12.2 °C 1024.3 hPa NNW 5.0 km/h 13.4 km/h 97% 0.0 mm 0 W/m2
05:45 12.6 °C 12.2 °C 1024.3 hPa NNW 5.0 km/h 13.4 km/h 97% 0.0 mm 2 W/m2
05:55 12.7 °C 12.2 °C 1024.3 hPa NNW 3.5 km/h 11.1 km/h 97% 0.0 mm 10 W/m2
06:00 12.7 °C 12.2 °C 1024.3 hPa NNW 3.5 km/h 11.1 km/h 97% 0.0 mm 18 W/m2
06:05 12.8 °C 12.3 °C 1024.3 hPa NNW 5.0 km/h 9.7 km/h 97% 0.0 mm 23 W/m2
06:10 12.8 °C 12.3 °C 1024.3 hPa NNW 6.1 km/h 11.1 km/h 97% 0.0 mm 30 W/m2
06:15 12.9 °C 12.4 °C 1024.3 hPa NNW 6.1 km/h 11.1 km/h 97% 0.0 mm 35 W/m2
06:20 12.9 °C 12.4 °C 1024.3 hPa NNW 3.5 km/h 9.7 km/h 97% 0.0 mm 38 W/m2
06:25 12.9 °C 12.4 °C 1024.3 hPa NNW 3.5 km/h 9.7 km/h 97% 0.0 mm 61 W/m2
06:30 13.1 °C 12.9 °C 1024.3 hPa NNW 5.0 km/h 11.1 km/h 99% 0.0 mm 69 W/m2
06:35 13.1 °C 12.9 °C 1023.9 hPa NNW 3.5 km/h 11.1 km/h 99% 0.0 mm 80 W/m2
06:40 13.3 °C 13.2 °C 1024.3 hPa NNW 7.2 km/h 12.2 km/h 99% 0.0 mm 92 W/m2
06:45 13.4 °C 13.3 °C 1024.3 hPa NW 5.0 km/h 12.2 km/h 99% 0.0 mm 102 W/m2
06:50 13.6 °C 13.4 °C 1024.3 hPa NW 5.0 km/h 11.1 km/h 99% 0.0 mm 110 W/m2
06:55 13.6 °C 13.4 °C 1023.9 hPa NNW 7.2 km/h 11.1 km/h 99% 0.0 mm 116 W/m2
07:00 13.9 °C 13.8 °C 1023.9 hPa NNW 5.0 km/h 11.1 km/h 99% 0.0 mm 127 W/m2
07:05 14.2 °C 14.1 °C 1024.3 hPa NNW 3.5 km/h 11.1 km/h 99% 0.0 mm 134 W/m2
07:15 14.6 °C 14.4 °C 1023.9 hPa NNW 5.0 km/h 11.1 km/h 99% 0.0 mm 143 W/m2
07:20 14.7 °C 14.6 °C 1023.9 hPa NNW 6.1 km/h 11.1 km/h 99% 0.0 mm 154 W/m2
07:25 15.0 °C 14.8 °C 1023.9 hPa NW 6.1 km/h 11.1 km/h 99% 0.0 mm 152 W/m2
07:36 15.2 °C 14.9 °C 1023.9 hPa NNW 5.0 km/h 11.1 km/h 98% 0.0 mm 150 W/m2
07:41 15.5 °C 15.1 °C 1024.3 hPa NW 7.2 km/h 12.2 km/h 97% 0.0 mm 137 W/m2
07:46 15.5 °C 14.7 °C 1024.3 hPa NW 6.1 km/h 12.2 km/h 95% 0.0 mm 178 W/m2
07:51 15.9 °C 15.1 °C 1023.9 hPa NNW 7.2 km/h 11.1 km/h 95% 0.0 mm 206 W/m2
07:56 16.2 °C 15.1 °C 1024.3 hPa NNW 5.0 km/h 9.7 km/h 93% 0.0 mm 231 W/m2
08:11 17.7 °C 15.5 °C 1023.9 hPa NW 6.1 km/h 11.1 km/h 87% 0.0 mm 309 W/m2
08:17 18.1 °C 15.7 °C 1023.9 hPa NW 6.1 km/h 12.2 km/h 86% 0.0 mm 323 W/m2
08:22 18.0 °C 15.4 °C 1023.9 hPa NW 5.0 km/h 12.2 km/h 85% 0.0 mm 340 W/m2
08:27 18.2 °C 15.7 °C 1024.3 hPa NW 7.2 km/h 12.2 km/h 85% 0.0 mm 351 W/m2
08:42 19.4 °C 16.1 °C 1023.9 hPa NW 5.0 km/h 11.1 km/h 81% 0.0 mm 424 W/m2
08:47 19.6 °C 15.4 °C 1023.9 hPa NW 2.6 km/h 11.1 km/h 77% 0.0 mm 469 W/m2
08:52 19.8 °C 15.4 °C 1023.9 hPa NW 3.5 km/h 11.1 km/h 76% 0.0 mm 495 W/m2
09:12 21.2 °C 15.1 °C 1023.9 hPa NNW 6.1 km/h 9.7 km/h 68% 0.0 mm 480 W/m2
09:17 21.1 °C 15.0 °C 1024.3 hPa NNW 5.0 km/h 9.7 km/h 68% 0.0 mm 469 W/m2
09:22 21.3 °C 15.6 °C 1023.9 hPa NNW 2.6 km/h 8.7 km/h 70% 0.0 mm 617 W/m2
09:27 22.2 °C 15.8 °C 1023.9 hPa NNW 6.1 km/h 11.1 km/h 67% 0.0 mm 612 W/m2
09:32 22.2 °C 15.1 °C 1023.9 hPa WNW 2.6 km/h 11.1 km/h 64% 0.0 mm 619 W/m2
09:37 22.3 °C 14.9 °C 1023.9 hPa WNW 2.6 km/h 8.7 km/h 63% 0.0 mm 642 W/m2
09:47 23.0 °C 15.3 °C 1023.9 hPa West 5.0 km/h 8.7 km/h 62% 0.0 mm 664 W/m2
09:52 23.0 °C 15.3 °C 1023.9 hPa West 2.6 km/h 8.7 km/h 62% 0.0 mm 622 W/m2
09:57 22.8 °C 15.2 °C 1023.9 hPa WSW 1.1 km/h 8.7 km/h 62% 0.0 mm 639 W/m2
10:03 23.0 °C 15.6 °C 1023.6 hPa South 6.1 km/h 12.2 km/h 63% 0.0 mm 682 W/m2
10:08 22.7 °C 16.1 °C 1023.9 hPa SSE 5.0 km/h 12.2 km/h 66% 0.0 mm 706 W/m2
10:13 22.9 °C 16.0 °C 1023.9 hPa SE 7.2 km/h 11.1 km/h 65% 0.0 mm 714 W/m2
10:18 22.2 °C 15.6 °C 1023.9 hPa South 8.7 km/h 12.2 km/h 66% 0.0 mm 700 W/m2
10:28 21.6 °C 16.3 °C 1023.6 hPa South 9.7 km/h 15.8 km/h 72% 0.0 mm 698 W/m2
10:33 21.3 °C 16.5 °C 1023.9 hPa South 9.7 km/h 15.8 km/h 74% 0.0 mm 652 W/m2
10:48 21.4 °C 16.8 °C 1023.6 hPa South 7.2 km/h 15.8 km/h 75% 0.0 mm 702 W/m2
10:53 21.3 °C 16.7 °C 1023.6 hPa South 8.7 km/h 14.8 km/h 75% 0.0 mm 661 W/m2
11:03 20.9 °C 16.7 °C 1023.2 hPa South 9.7 km/h 17.2 km/h 77% 0.0 mm 672 W/m2
11:08 21.0 °C 17.1 °C 1023.2 hPa South 9.7 km/h 17.2 km/h 78% 0.0 mm 665 W/m2
11:13 21.1 °C 16.9 °C 1023.6 hPa South 8.7 km/h 13.4 km/h 77% 0.0 mm 759 W/m2
11:44 20.8 °C 16.8 °C 1023.2 hPa South 11.1 km/h 15.8 km/h 78% 0.0 mm 794 W/m2
11:49 21.3 °C 17.5 °C 1023.2 hPa South 7.2 km/h 15.8 km/h 79% 0.0 mm 722 W/m2
11:54 21.2 °C 17.0 °C 1023.2 hPa SSW 7.2 km/h 15.8 km/h 77% 0.0 mm 663 W/m2
11:59 20.9 °C 16.9 °C 1023.2 hPa South 8.7 km/h 15.8 km/h 78% 0.0 mm 753 W/m2
12:04 21.2 °C 17.4 °C 1022.9 hPa South 9.7 km/h 14.8 km/h 79% 0.0 mm 761 W/m2
12:09 21.3 °C 17.1 °C 1022.9 hPa South 7.2 km/h 14.8 km/h 77% 0.0 mm 636 W/m2
12:14 21.6 °C 17.4 °C 1022.9 hPa SSW 6.1 km/h 14.8 km/h 77% 0.0 mm 648 W/m2
12:20 21.6 °C 17.0 °C 1022.9 hPa South 12.2 km/h 14.8 km/h 75% 0.0 mm 748 W/m2
12:25 21.7 °C 17.5 °C 1022.9 hPa South 9.7 km/h 14.8 km/h 77% 0.0 mm 760 W/m2
12:45 21.8 °C 17.6 °C 1022.6 hPa South 7.2 km/h 12.2 km/h 77% 0.0 mm 669 W/m2
13:00 22.3 °C 17.0 °C 1022.2 hPa South 7.2 km/h 14.8 km/h 72% 0.0 mm 814 W/m2
13:05 22.5 °C 17.4 °C 1022.2 hPa South 9.7 km/h 14.8 km/h 73% 0.0 mm 834 W/m2
13:10 22.1 °C 16.8 °C 1022.2 hPa South 9.7 km/h 14.8 km/h 72% 0.0 mm 822 W/m2
13:20 22.2 °C 16.7 °C 1022.2 hPa South 9.7 km/h 15.8 km/h 71% 0.0 mm 822 W/m2
13:25 22.0 °C 16.5 °C 1022.2 hPa South 9.7 km/h 15.8 km/h 71% 0.0 mm 808 W/m2
13:30 22.0 °C 16.7 °C 1021.9 hPa South 8.7 km/h 14.8 km/h 72% 0.0 mm 800 W/m2
13:35 22.2 °C 17.2 °C 1021.9 hPa South 3.5 km/h 14.8 km/h 73% 0.0 mm 793 W/m2
13:52 22.3 °C 16.8 °C 1021.9 hPa South 8.7 km/h 15.8 km/h 71% 0.0 mm 778 W/m2
13:57 22.1 °C 16.8 °C 1021.9 hPa SSE 2.6 km/h 15.8 km/h 72% 0.0 mm 670 W/m2
14:03 22.2 °C 16.9 °C 1021.6 hPa SSE 1.1 km/h 15.8 km/h 72% 0.0 mm 759 W/m2
14:18 22.3 °C 16.6 °C 1021.6 hPa SSE 11.1 km/h 15.8 km/h 70% 0.0 mm 744 W/m2
14:28 23.0 °C 17.3 °C 1021.6 hPa SE 6.1 km/h 14.8 km/h 70% 0.0 mm 745 W/m2
14:33 22.7 °C 17.2 °C 1021.6 hPa SE 7.2 km/h 13.4 km/h 71% 0.0 mm 747 W/m2
14:43 23.4 °C 16.9 °C 1021.6 hPa SSE 1.1 km/h 11.1 km/h 67% 0.0 mm 770 W/m2
14:48 23.5 °C 16.8 °C 1021.6 hPa SSE 3.5 km/h 12.2 km/h 66% 0.0 mm 780 W/m2
14:53 23.2 °C 15.8 °C 1021.6 hPa SSE 6.1 km/h 15.8 km/h 63% 0.0 mm 578 W/m2
15:02 22.6 °C 15.7 °C 1021.6 hPa SSE 7.2 km/h 15.8 km/h 65% 0.0 mm 550 W/m2
15:12 21.4 °C 15.3 °C 1021.6 hPa South 9.7 km/h 17.2 km/h 68% 0.0 mm 210 W/m2
15:17 20.5 °C 15.5 °C 1021.2 hPa SSW 8.7 km/h 17.2 km/h 73% 0.0 mm 188 W/m2
15:22 20.1 °C 15.8 °C 1021.2 hPa South 7.2 km/h 17.2 km/h 76% 0.0 mm 181 W/m2
15:27 20.1 °C 16.6 °C 1021.2 hPa South 7.2 km/h 17.2 km/h 80% 0.0 mm 181 W/m2
15:32 20.1 °C 16.9 °C 1021.2 hPa South 8.7 km/h 13.4 km/h 82% 0.0 mm 183 W/m2
15:37 19.8 °C 16.8 °C 1021.2 hPa South 9.7 km/h 13.4 km/h 83% 0.0 mm 184 W/m2
15:42 19.9 °C 16.7 °C 1021.2 hPa South 5.0 km/h 13.4 km/h 82% 0.0 mm 184 W/m2
15:47 19.9 °C 16.6 °C 1021.2 hPa South 6.1 km/h 13.4 km/h 81% 0.0 mm 180 W/m2
15:57 19.9 °C 16.7 °C 1021.2 hPa SSW 3.5 km/h 11.1 km/h 82% 0.0 mm 169 W/m2
16:02 19.9 °C 16.6 °C 1021.2 hPa South 2.6 km/h 7.2 km/h 81% 0.0 mm 162 W/m2
16:07 19.9 °C 16.3 °C 1021.2 hPa SSE 1.1 km/h 7.2 km/h 80% 0.0 mm 154 W/m2
16:20 19.9 °C 16.7 °C 1021.2 hPa SSW 1.1 km/h 7.2 km/h 82% 0.0 mm 130 W/m2
16:26 19.9 °C 16.9 °C 1020.9 hPa Calm   6.1 km/h 83% 0.0 mm 127 W/m2
16:28 19.9 °C 17.1 °C 1020.9 hPa SSW 1.1 km/h 7.2 km/h 84% 0.0 mm 128 W/m2
16:29 19.9 °C 17.1 °C 1021.2 hPa Calm   7.2 km/h 84% 0.0 mm 129 W/m2
16:35 20.0 °C 17.1 °C 1020.9 hPa SSE 1.1 km/h 7.2 km/h 83% 0.0 mm 140 W/m2
16:40 20.0 °C 17.1 °C 1021.2 hPa SSE 2.6 km/h 5.0 km/h 83% 0.0 mm 158 W/m2
16:41 20.0 °C 17.1 °C 1021.2 hPa SSE 1.1 km/h 5.0 km/h 83% 0.0 mm 162 W/m2
16:53 20.2 °C 17.2 °C 1020.9 hPa Calm   5.0 km/h 83% 0.0 mm 191 W/m2
16:59 20.5 °C 17.3 °C 1020.9 hPa South 1.1 km/h 3.5 km/h 82% 0.0 mm 195 W/m2
17:09 20.5 °C 16.7 °C 1020.9 hPa South 1.1 km/h 6.1 km/h 79% 0.0 mm 211 W/m2
17:14 20.6 °C 16.8 °C 1020.9 hPa Calm   6.1 km/h 79% 0.0 mm 241 W/m2
17:19 21.4 °C 17.2 °C 1020.9 hPa SSE 1.1 km/h 5.0 km/h 77% 0.0 mm 369 W/m2
17:25 22.6 °C 17.6 °C 1020.9 hPa South 6.1 km/h 8.7 km/h 73% 0.0 mm 294 W/m2
17:30 21.9 °C 16.8 °C 1020.9 hPa South 2.6 km/h 9.7 km/h 73% 0.0 mm 219 W/m2
17:40 21.2 °C 16.8 °C 1020.9 hPa South 6.1 km/h 8.7 km/h 76% 0.0 mm 248 W/m2
17:50 22.0 °C 16.9 °C 1020.5 hPa SSW 5.0 km/h 8.7 km/h 73% 0.0 mm 182 W/m2
17:55 21.0 °C 16.6 °C 1020.9 hPa South 2.6 km/h 9.7 km/h 76% 0.0 mm 169 W/m2
18:00 20.9 °C 17.1 °C 1020.9 hPa Calm   9.7 km/h 79% 0.0 mm 161 W/m2
18:05 20.9 °C 16.9 °C 1020.5 hPa SSE 2.6 km/h 6.1 km/h 78% 0.0 mm 160 W/m2
18:10 20.8 °C 16.8 °C 1020.9 hPa South 5.0 km/h 7.2 km/h 78% 0.0 mm 124 W/m2
18:20 20.2 °C 16.8 °C 1020.9 hPa SSW 5.0 km/h 8.7 km/h 81% 0.0 mm 99 W/m2
18:25 19.9 °C 16.9 °C 1020.9 hPa SW 5.0 km/h 8.7 km/h 83% 0.0 mm 100 W/m2
18:35 19.5 °C 16.9 °C 1020.9 hPa SSW 5.0 km/h 9.7 km/h 85% 0.0 mm 77 W/m2
18:55 19.2 °C 16.8 °C 1020.9 hPa SSW 5.0 km/h 12.2 km/h 86% 0.0 mm 56 W/m2
19:00 19.1 °C 16.7 °C 1020.9 hPa SSW 1.1 km/h 8.7 km/h 86% 0.0 mm 59 W/m2
19:10 19.2 °C 16.8 °C 1020.9 hPa South 2.6 km/h 8.7 km/h 86% 0.0 mm 52 W/m2
19:15 19.2 °C 16.8 °C 1020.9 hPa SSW 3.5 km/h 7.2 km/h 86% 0.0 mm 45 W/m2
19:20 19.1 °C 16.9 °C 1020.9 hPa SW 2.6 km/h 7.2 km/h 87% 0.0 mm 39 W/m2
19:25 18.9 °C 16.9 °C 1020.9 hPa South 3.5 km/h 7.2 km/h 88% 0.0 mm 36 W/m2
19:30 18.8 °C 16.9 °C 1020.9 hPa South 7.2 km/h 9.7 km/h 89% 0.0 mm 29 W/m2
19:35 18.6 °C 16.8 °C 1020.9 hPa South 3.5 km/h 9.7 km/h 89% 0.0 mm 25 W/m2
19:40 18.6 °C 16.9 °C 1020.9 hPa South 2.6 km/h 8.7 km/h 90% 0.0 mm 20 W/m2
19:45 18.6 °C 16.9 °C 1021.2 hPa SSW 2.6 km/h 7.2 km/h 90% 0.0 mm 13 W/m2
19:50 18.5 °C 16.8 °C 1020.9 hPa SSW 2.6 km/h 7.2 km/h 90% 0.0 mm 8 W/m2
19:55 18.4 °C 16.9 °C 1021.2 hPa South 1.1 km/h 6.1 km/h 91% 0.0 mm 4 W/m2
20:00 18.4 °C 16.9 °C 1020.9 hPa SSW 1.1 km/h 6.1 km/h 91% 0.0 mm 3 W/m2
20:05 18.4 °C 17.1 °C 1020.9 hPa SSW 2.6 km/h 5.0 km/h 92% 0.0 mm 1 W/m2
20:10 18.3 °C 17.0 °C 1021.2 hPa SSW 1.1 km/h 5.0 km/h 92% 0.0 mm 0 W/m2
20:15 18.3 °C 17.0 °C 1020.9 hPa SSW 2.6 km/h 6.1 km/h 92% 0.0 mm 0 W/m2
20:20 18.3 °C 17.0 °C 1020.9 hPa SSW 1.1 km/h 6.1 km/h 92% 0.0 mm 0 W/m2
20:30 18.2 °C 17.1 °C 1021.2 hPa SSW 3.5 km/h 6.1 km/h 93% 0.0 mm 0 W/m2
20:35 18.2 °C 17.1 °C 1021.2 hPa SSW 2.6 km/h 6.1 km/h 93% 0.0 mm 0 W/m2
20:55 18.0 °C 16.9 °C 1021.2 hPa Calm   6.1 km/h 93% 0.0 mm 0 W/m2
21:00 18.0 °C 16.9 °C 1021.2 hPa Calm   5.0 km/h 93% 0.0 mm 0 W/m2
21:05 17.9 °C 16.6 °C 1021.2 hPa Calm   5.0 km/h 92% 0.0 mm 0 W/m2
21:20 17.9 °C 16.6 °C 1021.2 hPa Calm   2.6 km/h 92% 0.0 mm 0 W/m2
21:25 17.9 °C 16.8 °C 1021.2 hPa Calm   2.6 km/h 93% 0.0 mm 0 W/m2
21:30 17.9 °C 16.8 °C 1021.6 hPa Calm   1.1 km/h 93% 0.0 mm 0 W/m2
21:40 17.8 °C 16.7 °C 1021.6 hPa WSW 1.1 km/h 3.5 km/h 93% 0.0 mm 0 W/m2
21:45 17.8 °C 16.7 °C 1021.6 hPa Calm   2.6 km/h 93% 0.0 mm 0 W/m2
21:50 17.8 °C 16.7 °C 1021.6 hPa Calm   2.6 km/h 93% 0.0 mm 0 W/m2
21:55 17.7 °C 16.6 °C 1021.6 hPa Calm     93% 0.0 mm 0 W/m2
22:05 17.7 °C 16.6 °C 1021.6 hPa Calm     93% 0.0 mm 0 W/m2
22:10 17.8 °C 16.7 °C 1021.9 hPa Calm     93% 0.0 mm 0 W/m2
22:15 17.7 °C 16.6 °C 1021.9 hPa Calm     93% 0.0 mm 0 W/m2
22:20 17.7 °C 16.6 °C 1021.9 hPa Calm     93% 0.0 mm 0 W/m2
22:25 17.7 °C 16.6 °C 1021.9 hPa Calm     93% 0.0 mm 0 W/m2
22:30 17.7 °C 16.6 °C 1021.9 hPa Calm     93% 0.0 mm 0 W/m2
22:35 17.7 °C 16.6 °C 1021.9 hPa Calm     93% 0.0 mm 0 W/m2
22:40 17.7 °C 16.6 °C 1021.9 hPa Calm     93% 0.0 mm 0 W/m2
22:45 17.7 °C 16.6 °C 1022.2 hPa Calm     93% 0.0 mm 0 W/m2
22:50 17.7 °C 16.4 °C 1021.9 hPa Calm   1.1 km/h 92% 0.0 mm 0 W/m2
22:55 17.7 °C 16.4 °C 1021.9 hPa Calm   1.1 km/h 92% 0.0 mm 0 W/m2
23:05 17.6 °C 16.3 °C 1021.9 hPa Calm     92% 0.0 mm 0 W/m2
23:10 17.6 °C 16.4 °C 1021.9 hPa Calm     93% 0.0 mm 0 W/m2
23:15 17.5 °C 16.4 °C 1021.9 hPa Calm     93% 0.0 mm 0 W/m2
23:20 17.5 °C 16.4 °C 1021.6 hPa Calm     93% 0.0 mm 0 W/m2
23:25 17.4 °C 16.3 °C 1021.9 hPa Calm     93% 0.0 mm 0 W/m2
23:35 17.2 °C 16.2 °C 1021.9 hPa Calm     94% 0.0 mm 0 W/m2
23:45 16.9 °C 16.1 °C 1021.6 hPa Calm     95% 0.0 mm 0 W/m2
23:50 16.9 °C 16.3 °C 1021.9 hPa Calm     96% 0.0 mm 0 W/m2
23:55 16.7 °C 16.1 °C 1021.6 hPa Calm     96% 0.0 mm 0 W/m2
Northern Hawkes Bay. New Zealand Historic Data
Compliments of Weather Underground - 2 mb